Terminal Aerodrome Forecast
Issued by NWS Spokane, WA

Home | Current Version | Previous Version | Text Only | Print | Product List | Glossary On
Versions: 1 2 3 4 5 6 7 8 9 10 11 12 13 14 15 16 17 18 19 20 21 22 23 24
000
FTUS46 KOTX 161157 AAA
TAFGEG
TAF AMD
KGEG 161157Z 1612/1712 VRB04KT P6SM -SN BCFG OVC004
      TEMPO 1612/1616 SCT005 BKN200
     FM161600 04002KT 4SM BR SCT007 SCT250
     FM162100 04004KT P6SM BKN250
     FM170400 04004KT 4SM BR OVC050
     FM170900 04003KT 6SM BR OVC001=

USA.gov is the U.S. government's official web portal to all federal, state and local government web resources and services.